Latest Weather Observations for Norseman Airport

IDW60801

Issued at 11:35 pm WST Saturday 20 September 2014 (issued every 30 minutes, with the page automatically refreshed every 10 minutes)

About weather observations | Map of weather stations | Latest weather observations for WA | Other Formats
Station Details ID: 012009 Name: NORSEMAN AERO Lat: -32.21 Lon: 121.75 Height: 262.5 m
Data from the previous 72 hours. | See also: Recent months at Norseman Airport
Date/Time
WST
Temp
°C
App
Temp
°C
Dew
Point
Rel
Hum
%
Delta-T
°C
Wind Press
QNH
hPa
Press
MSL
hPa
Rain
since 9 am
mm
Dir
 
Spd
km/h
Gust
km/h
Spd
kts
Gust
kts
20/11:30pm 22.0 15.6 1.1 25 9.7 NE 24 37 13 20 1014.8 1014.6 0.0
20/11:00pm 22.5 15.9 2.1 26 9.7 NE 26 37 14 20 1015.4 1015.1 0.0
20/10:30pm 22.7 16.5 2.2 26 9.8 NE 24 35 13 19 1016.0 1015.7 0.0
20/10:00pm 22.4 17.0 2.5 27 9.5 NE 20 28 11 15 1016.3 1016.0 0.0
20/09:30pm 22.3 17.2 2.9 28 9.4 ENE 19 26 10 14 1016.7 1016.5 0.0
20/09:00pm 22.5 17.4 3.1 28 9.4 ENE 19 24 10 13 1016.9 1016.7 0.0
20/08:30pm 23.0 18.3 3.0 27 9.7 ENE 17 24 9 13 1017.0 1016.8 0.0
20/08:00pm 23.6 18.5 3.0 26 10.0 ENE 19 24 10 13 1017.0 1016.8 0.0
20/07:30pm 24.5 19.1 2.6 24 10.7 ENE 20 28 11 15 1016.7 1016.5 0.0
20/07:00pm 24.6 19.2 2.7 24 10.7 NE 20 26 11 14 1016.7 1016.5 0.0
20/06:30pm 25.1 20.0 3.1 24 10.9 NE 19 24 10 13 1016.6 1016.4 0.0
20/06:00pm 25.8 21.2 3.7 24 11.1 NE 17 22 9 12 1016.6 1016.4 0.0
20/05:30pm 27.2 21.3 3.7 22 11.9 NE 24 33 13 18 1016.5 1016.3 0.0
20/05:00pm 28.0 21.9 3.0 20 12.5 NNE 24 33 13 18 1016.5 1016.3 0.0
20/04:30pm 28.6 22.8 4.2 21 12.6 NNE 24 37 13 20 1016.6 1016.4 0.0
20/04:00pm 28.8 21.7 3.6 20 12.8 N 30 39 16 21 1016.7 1016.5 0.0
20/03:30pm 29.1 22.4 3.9 20 13.0 N 28 39 15 21 1016.7 1016.5 0.0
20/03:00pm 29.2 23.4 4.6 21 12.8 N 24 30 13 16 1017.0 1016.8 0.0
20/02:30pm 28.6 23.1 6.1 24 12.0 N 24 32 13 17 1017.2 1017.0 0.0
20/02:00pm 27.6 22.2 6.4 26 11.3 N 24 35 13 19 1017.5 1017.3 0.0
20/01:30pm 27.5 22.3 7.4 28 10.9 N 24 35 13 19 1017.9 1017.7 0.0
20/01:00pm 26.9 22.5 7.4 29 10.5 N 20 30 11 16 1018.5 1018.3 0.0
20/12:30pm 25.5 21.7 7.6 32 9.6 N 17 26 9 14 1019.3 1019.0 0.0
20/12:00pm 25.2 21.3 8.7 35 9.0 N 19 30 10 16 1020.0 1019.8 0.0
20/11:30am 23.2 19.3 8.5 39 7.9 N 19 26 10 14 1020.8 1020.6 0.0
20/11:00am 21.7 17.9 8.9 44 6.9 N 19 24 10 13 1021.3 1021.1 0.0
20/10:30am 20.0 16.6 9.0 49 5.9 N 17 24 9 13 1021.9 1021.7 0.0
20/10:00am 18.3 15.0 9.4 56 4.7 N 17 22 9 12 1022.2 1022.0 0.0
20/09:30am 17.1 13.8 9.5 61 4.0 N 17 22 9 12 1022.4 1022.2 0.0
20/09:00am 15.6 12.7 9.5 67 3.2 N 15 20 8 11 1022.7 1022.5 0.0
20/08:30am 14.1 10.4 9.3 73 2.5 N 19 22 10 12 1022.9 1022.8 0.0
20/08:00am 13.0 8.6 8.9 76 2.1 NNE 22 26 12 14 1023.0 1022.9 0.0
20/07:30am 12.4 8.7 9.6 83 1.4 NNE 19 24 10 13 1023.0 1022.9 0.0
20/07:00am 11.3 8.4 9.7 90 0.8 NNE 15 22 8 12 1022.8 1022.6 0.0
20/06:30am 10.2 8.0 9.3 94 0.5 N 11 13 6 7 1022.8 1022.6 0.0
20/06:00am 9.6 7.6 8.8 95 0.4 NNE 9 11 5 6 1022.7 1022.5 0.0
20/05:30am 10.2 8.4 9.3 94 0.5 NE 9 13 5 7 1022.7 1022.5 0.0
20/05:00am 10.3 8.1 9.4 94 0.5 NE 11 15 6 8 1022.6 1022.4 0.0
20/04:30am 10.6 8.5 9.7 94 0.5 ENE 11 13 6 7 1022.4 1022.2 0.0
20/04:00am 10.9 9.2 10.0 94 0.5 ENE 9 13 5 7 1022.3 1022.1 0.0
20/03:30am 11.1 9.1 10.2 94 0.5 ENE 11 15 6 8 1022.5 1022.3 0.0
20/03:00am 11.3 9.7 10.2 93 0.6 ENE 9 13 5 7 1022.3 1022.1 0.0
20/02:30am 11.7 10.2 10.4 92 0.7 ENE 9 13 5 7 1022.5 1022.3 0.0
20/02:00am 12.0 10.9 10.6 91 0.7 ENE 7 13 4 7 1022.5 1022.3 0.0
20/01:30am 12.2 11.2 10.4 89 0.9 ENE 6 9 3 5 1022.6 1022.4 0.0
20/01:00am 12.8 11.3 10.7 87 1.1 ENE 9 15 5 8 1022.7 1022.5 0.0
20/12:30am 13.2 11.8 10.9 86 1.2 E 9 13 5 7 1022.6 1022.4 0.0
20/12:00am 13.5 12.1 10.9 84 1.4 ESE 9 15 5 8 1022.8 1022.6 0.0
 
Date/Time
WST
Temp
°C
App
Temp
°C
Dew
Point
Rel
Hum
%
Delta-T
°C
Wind Press
QNH
hPa
Press
MSL
hPa
Rain
since 9 am
mm
Dir
 
Spd
km/h
Gust
km/h
Spd
kts
Gust
kts
19/11:30pm 14.0 12.7 11.2 83 1.5 ESE 9 15 5 8 1022.9 1022.8 0.0
19/11:00pm 14.5 13.2 11.3 81 1.7 SE 9 15 5 8 1023.2 1023.0 0.0
19/10:30pm 15.0 13.7 11.4 79 2.0 SE 9 15 5 8 1022.9 1022.8 0.0
19/10:00pm 15.7 13.4 11.7 77 2.2 SE 15 22 8 12 1023.2 1023.0 0.0
19/09:30pm 16.3 13.5 11.5 73 2.6 SE 17 24 9 13 1023.0 1022.9 0.0
19/09:00pm 17.0 13.8 11.3 69 3.1 SSE 19 24 10 13 1022.8 1022.6 0.0
19/08:30pm 17.9 14.7 11.2 65 3.7 SSE 19 26 10 14 1022.6 1022.4 0.0
19/08:00pm 18.9 16.6 10.5 58 4.6 SSE 13 20 7 11 1022.3 1022.1 0.0
19/07:30pm 20.2 16.9 9.5 50 5.8 SSE 17 32 9 17 1021.9 1021.7 0.0
19/07:00pm 20.5 17.5 9.1 48 6.1 SSE 15 24 8 13 1021.4 1021.2 0.0
19/06:30pm 21.2 18.1 8.8 45 6.6 S 15 22 8 12 1020.9 1020.7 0.0
19/06:00pm 22.0 18.4 8.5 42 7.2 S 17 22 9 12 1020.6 1020.4 0.0
19/05:30pm 23.1 19.0 8.0 38 8.1 S 19 26 10 14 1020.2 1020.0 0.0
19/05:00pm 23.9 19.5 6.7 33 9.0 S 19 26 10 14 1019.8 1019.6 0.0
19/04:30pm 24.4 20.4 6.6 32 9.3 S 17 24 9 13 1019.6 1019.3 0.0
19/04:00pm 24.8 20.5 5.1 28 10.0 S 17 24 9 13 1019.4 1019.1 0.0
19/03:30pm 25.1 20.9 5.8 29 10.0 S 17 24 9 13 1019.3 1019.0 0.0
19/03:00pm 25.0 20.4 6.7 31 9.6 S 20 33 11 18 1019.0 1018.8 0.0
19/02:30pm 25.5 21.5 6.7 30 9.9 SSW 17 20 9 11 1019.0 1018.8 0.0
19/02:00pm 25.0 20.3 6.2 30 9.8 SE 20 28 11 15 1019.2 1018.9 0.0
19/01:30pm 25.0 20.8 7.6 33 9.3 SE 19 26 10 14 1019.4 1019.1 0.0
19/01:00pm 24.1 20.1 6.8 33 9.1 S 17 28 9 15 1019.7 1019.5 0.0
19/12:30pm 24.0 19.6 7.6 35 8.7 SSE 20 32 11 17 1020.0 1019.8 0.0
19/12:00pm 23.1 19.0 8.8 40 7.7 S 20 30 11 16 1020.3 1020.1 0.0
19/11:30am 22.8 19.2 9.9 44 7.1 S 19 30 10 16 1020.5 1020.3 0.0
19/11:00am 21.6 18.0 10.4 49 6.2 SSE 20 24 11 13 1020.8 1020.6 0.0
19/10:30am 21.2 17.8 11.2 53 5.6 S 20 30 11 16 1021.1 1020.9 0.0
19/10:00am 20.1 16.2 12.1 60 4.5 SSW 24 37 13 20 1021.4 1021.2 0.0
19/09:30am 19.3 15.8 12.1 63 4.1 SSE 22 28 12 15 1021.4 1021.2 0.0
19/09:00am 18.4 13.8 11.2 63 4.0 SSW 26 37 14 20 1021.5 1021.3 0.0
19/08:30am 18.0 14.8 11.8 67 3.4 S 20 32 11 17 1021.3 1021.1 0.0
19/08:00am 16.3 13.2 11.7 74 2.5 S 19 26 10 14 1021.0 1020.8 0.0
19/07:30am 14.3 12.7 11.5 83 1.5 SSW 11 15 6 8 1021.0 1020.8 0.0
19/07:00am 12.2 10.3 9.0 81 1.6 SSW 9 13 5 7 1020.8 1020.6 0.0
19/06:30am 10.5 8.6 6.8 78 1.8 SW 6 9 3 5 1020.3 1020.1 0.0
19/06:00am 9.8 6.4 6.0 77 1.8 SW 13 15 7 8 1020.0 1019.8 0.0
19/05:30am 10.6 6.9 6.4 75 2.0 SSW 15 17 8 9 1019.6 1019.3 0.0
19/05:00am 9.2 6.4 5.2 76 1.8 SSW 9 13 5 7 1019.2 1018.9 0.0
19/04:30am 10.4 8.2 6.0 74 2.1 SE 7 9 4 5 1018.3 1018.1 0.0
19/04:00am 11.8 9.6 6.3 69 2.6 SW 7 11 4 6 1018.2 1018.0 0.0
19/03:30am 13.0 10.9 6.6 65 3.1 W 7 9 4 5 1017.9 1017.7 0.0
19/03:00am 13.8 9.5 6.9 63 3.4 SSW 19 22 10 12 1017.8 1017.6 0.0
19/02:30am 14.6 12.7 6.7 59 3.9 NE 6 9 3 5 1016.9 1016.7 0.0
19/02:00am 14.5 11.7 6.8 60 3.8 NE 11 13 6 7 1016.7 1016.5 0.0
19/01:30am 14.4 11.2 7.0 61 3.7 NE 13 13 7 7 1016.6 1016.4 0.0
19/01:00am 13.8 11.4 7.1 64 3.3 NNE 9 9 5 5 1016.8 1016.6 0.0
19/12:30am 13.9 10.8 7.4 65 3.2 N 13 15 7 8 1016.7 1016.5 0.0
19/12:00am 14.8 12.5 7.6 62 3.6 NNE 9 13 5 7 1016.6 1016.4 0.0
 
Date/Time
WST
Temp
°C
App
Temp
°C
Dew
Point
Rel
Hum
%
Delta-T
°C
Wind Press
QNH
hPa
Press
MSL
hPa
Rain
since 9 am
mm
Dir
 
Spd
km/h
Gust
km/h
Spd
kts
Gust
kts
18/11:30pm 15.8 13.5 7.3 57 4.3 NE 9 13 5 7 1016.7 1016.5 0.0
18/11:00pm 17.1 14.7 7.2 52 5.0 E 9 13 5 7 1016.7 1016.5 0.0
18/10:30pm 18.0 14.5 7.1 49 5.5 E 15 20 8 11 1016.6 1016.4 0.0
18/10:00pm 18.3 14.4 7.1 48 5.7 E 17 22 9 12 1016.4 1016.1 0.0
18/09:30pm 17.7 14.6 7.2 50 5.3 E 13 17 7 9 1016.5 1016.3 0.0
18/09:00pm 16.0 14.3 7.5 57 4.3 E 6 11 3 6 1016.6 1016.4 0.0
18/08:30pm 17.2 15.7 8.4 56 4.6 NE 6 7 3 4 1016.1 1015.8 0.0
18/08:00pm 19.4 17.0 6.8 44 6.4 NE 9 11 5 6 1016.1 1015.8 0.0
18/07:30pm 19.9 17.1 7.0 43 6.6 NE 11 13 6 7 1015.9 1015.6 0.0
18/07:00pm 20.7 17.9 7.0 41 7.1 NE 11 13 6 7 1015.8 1015.5 0.0
18/06:30pm 20.6 18.0 9.2 48 6.1 N 13 15 7 8 1015.6 1015.3 0.0
18/06:00pm 22.8 19.1 7.8 38 7.9 N 17 22 9 12 1015.4 1015.1 0.0
18/05:30pm 24.4 19.3 6.2 31 9.5 N 22 28 12 15 1014.9 1014.7 0.0
18/05:00pm 25.3 20.3 6.5 30 9.9 N 22 30 12 16 1014.8 1014.6 0.0
18/04:30pm 25.8 19.7 6.4 29 10.2 N 28 37 15 20 1014.5 1014.3 0.0
18/04:00pm 26.2 19.7 6.3 28 10.5 N 30 39 16 21 1014.2 1014.0 0.0
18/03:30pm 26.5 20.5 7.0 29 10.4 N 28 39 15 21 1014.1 1013.9 0.0
18/03:00pm 26.5 20.4 6.5 28 10.6 N 28 37 15 20 1014.2 1014.0 0.0
18/02:30pm 27.3 21.8 7.7 29 10.6 NNE 26 39 14 21 1014.5 1014.3 0.0
18/02:00pm 26.4 20.4 6.9 29 10.4 NNE 28 41 15 22 1014.7 1014.5 0.0
18/01:30pm 26.1 19.4 7.2 30 10.1 N 32 44 17 24 1015.3 1015.0 0.0
18/01:00pm 25.8 20.4 7.9 32 9.7 NNE 26 41 14 22 1015.8 1015.5 0.0
18/12:30pm 25.2 18.5 7.3 32 9.5 N 32 39 17 21 1016.3 1016.0 0.0
18/12:00pm 24.4 17.7 7.5 34 9.0 NNE 32 41 17 22 1016.9 1016.7 0.0
18/11:30am 22.8 15.4 6.6 35 8.4 NNE 35 46 19 25 1017.5 1017.3 0.0
18/11:00am 22.4 15.1 7.4 38 7.9 NNE 35 44 19 24 1017.9 1017.7 0.0
18/10:30am 21.2 13.6 7.4 41 7.2 NNE 37 48 20 26 1018.4 1018.2 0.0
18/10:00am 20.1 12.7 6.8 42 6.8 NNE 35 46 19 25 1018.8 1018.6 0.0
18/09:30am 19.5 10.8 7.9 47 6.0 NNE 43 56 23 30 1019.2 1018.9 0.0
18/09:04am 18.3 9.9 5.8 44 6.2 NE 39 57 21 31 1019.6 1019.3 0.0
18/09:00am 18.2 11.1 6.4 46 5.9 NE 33 48 18 26 1019.6 1019.3 4.0
18/08:30am 17.1 10.1 6.9 51 5.1 NE 33 52 18 28 1019.8 1019.6 4.0
18/08:28am 17.0 9.9 6.2 49 5.4 NE 33 52 18 28 1019.8 1019.6 4.0
18/08:00am 15.9 11.4 6.9 55 4.5 NE 20 35 11 19 1020.0 1019.8 4.0
18/07:30am 14.4 11.0 7.7 64 3.4 NE 15 20 8 11 1020.1 1019.9 4.0
18/07:00am 12.8 9.8 7.7 71 2.5 ENE 13 19 7 10 1019.9 1019.7 4.0
18/06:30am 11.8 9.3 8.1 78 1.8 ENE 11 17 6 9 1019.6 1019.3 4.0
18/06:00am 11.7 9.3 8.6 81 1.6 ENE 11 15 6 8 1019.4 1019.1 4.0
18/05:30am 11.6 9.6 8.6 82 1.5 ENE 9 13 5 7 1019.4 1019.1 4.0
18/05:00am 11.8 9.0 8.6 81 1.6 NE 13 17 7 9 1019.3 1019.0 4.0
18/04:30am 12.0 8.5 8.8 81 1.6 NE 17 24 9 13 1018.9 1018.7 4.0
18/04:00am 11.8 10.0 9.4 85 1.2 ENE 9 15 5 8 1018.9 1018.7 4.0
18/03:30am 12.2 9.7 9.8 85 1.2 NE 13 19 7 10 1018.6 1018.4 4.0
18/03:00am 12.6 9.8 10.0 84 1.3 ENE 15 28 8 15 1018.4 1018.2 4.0
18/02:30am 12.9 9.9 10.6 86 1.2 E 17 28 9 15 1018.2 1018.0 4.0
18/02:00am 13.2 9.8 10.6 84 1.4 E 19 30 10 16 1018.5 1018.3 4.0
18/01:30am 13.9 8.6 9.7 76 2.2 E 28 43 15 23 1019.3 1019.0 4.0
18/01:00am 17.5 13.1 6.4 48 5.5 SE 19 30 10 16 1019.3 1019.0 0.0
18/12:30am 17.4 12.8 6.6 49 5.4 E 20 32 11 17 1018.3 1018.1 0.0
18/12:00am 17.3 12.0 6.8 50 5.3 ENE 24 35 13 19 1017.9 1017.7 0.0

Other Formats:

Comma delimited format used in spreadsheet applications
http://www.bom.gov.au/fwo/IDW60801/IDW60801.95642.axf

JavaScript Object Notation format (JSON) in row-major order
http://www.bom.gov.au/fwo/IDW60801/IDW60801.95642.json